Time;durP1;ratioP1;P1;durP2;ratioP2;P2;SDS_P1;SDS_P2;PMS_P1;PMS_P2;Temp;Humidity;BMP_temperature;BMP_pressure;BME280_temperature;BME280_humidity;BME280_pressure;Samples;Min_cycle;Max_cycle;Signal;HPM_P1;HPM_P2
2022/09/04 00:00:28;;;;;;;3.97;3.67;;;;;;;;;;4974871;28;20404;-50
2022/09/04 00:02:54;;;;;;;3.40;3.20;;;;;;;;;;4975131;28;20437;-50
2022/09/04 00:05:20;;;;;;;4.17;3.80;;;;;;;;;;4973409;28;20437;-51
2022/09/04 00:08:05;;;;;;;5.73;4.00;;;;;;;;;;4974023;28;20441;-50
2022/09/04 00:10:44;;;;;;;3.97;3.67;;;;;;;;;;4973260;28;20497;-50
2022/09/04 00:13:14;;;;;;;4.63;4.20;;;;;;;;;;4974703;28;20483;-51
2022/09/04 00:15:47;;;;;;;6.50;5.40;;;;;;;;;;4973914;28;20474;-50
2022/09/04 00:18:19;;;;;;;4.80;4.40;;;;;;;;;;4974684;28;20418;-50
2022/09/04 00:20:45;;;;;;;4.63;4.33;;;;;;;;;;4974790;28;20465;-50
2022/09/04 00:23:25;;;;;;;4.97;4.00;;;;;;;;;;4974654;28;20383;-50
2022/09/04 00:25:56;;;;;;;4.10;3.70;;;;;;;;;;4974421;28;20403;-51
2022/09/04 00:28:31;;;;;;;4.43;4.10;;;;;;;;;;4974230;28;20473;-50
2022/09/04 00:31:06;;;;;;;3.57;3.27;;;;;;;;;;4974344;28;20459;-51
2022/09/04 00:33:40;;;;;;;4.37;3.93;;;;;;;;;;4974829;28;20407;-50
2022/09/04 00:36:06;;;;;;;3.80;3.50;;;;;;;;;;4974348;28;20455;-52
2022/09/04 00:38:40;;;;;;;4.63;4.03;;;;;;;;;;4974349;28;20404;-50
2022/09/04 00:41:26;;;;;;;4.13;3.73;;;;;;;;;;4974632;28;20416;-51
2022/09/04 00:44:11;;;;;;;6.63;4.67;;;;;;;;;;4972586;28;20526;-51
2022/09/04 00:47:09;;;;;;;5.30;4.87;;;;;;;;;;4973915;28;20859;-50
2022/09/04 00:49:56;;;;;;;4.90;4.50;;;;;;;;;;4951801;28;20729;-51
2022/09/04 00:52:48;;;;;;;4.67;4.27;;;;;;;;;;4974179;28;20954;-50
2022/09/04 00:55:26;;;;;;;4.23;3.93;;;;;;;;;;4973987;28;20422;-50
2022/09/04 00:58:08;;;;;;;4.33;3.93;;;;;;;;;;4974059;28;20402;-50
2022/09/04 01:00:34;;;;;;;4.67;4.27;;;;;;;;;;4973616;28;20797;-50
2022/09/04 01:03:07;;;;;;;5.60;4.17;;;;;;;;;;4973534;28;20467;-50
2022/09/04 01:05:44;;;;;;;5.93;4.47;;;;;;;;;;4973520;28;20908;-50
2022/09/04 01:08:13;;;;;;;4.90;4.40;;;;;;;;;;4972931;28;20437;-50
2022/09/04 01:10:43;;;;;;;5.37;3.90;;;;;;;;;;4973920;28;20479;-50
2022/09/04 01:13:12;;;;;;;5.30;4.80;;;;;;;;;;4972314;28;20521;-50
2022/09/04 01:15:44;;;;;;;7.37;5.37;;;;;;;;;;4973169;28;20401;-50
2022/09/04 01:18:13;;;;;;;7.80;5.70;;;;;;;;;;4973831;28;20466;-52
2022/09/04 01:20:47;;;;;;;5.50;4.97;;;;;;;;;;4973870;28;20412;-50
2022/09/04 01:23:15;;;;;;;8.30;5.00;;;;;;;;;;4973703;28;20443;-51
2022/09/04 01:26:00;;;;;;;5.13;4.63;;;;;;;;;;4973951;28;20419;-50
2022/09/04 01:28:34;;;;;;;4.97;4.20;;;;;;;;;;4971793;28;20496;-49
2022/09/04 01:31:00;;;;;;;4.47;3.90;;;;;;;;;;4973205;28;20459;-49
2022/09/04 01:33:40;;;;;;;3.87;3.57;;;;;;;;;;4973242;28;20886;-49
2022/09/04 01:36:26;;;;;;;3.80;3.50;;;;;;;;;;4973051;28;20478;-52
2022/09/04 01:38:53;;;;;;;4.60;4.20;;;;;;;;;;4972924;28;20948;-50
2022/09/04 01:41:22;;;;;;;6.53;3.60;;;;;;;;;;4973134;28;20386;-49
2022/09/04 01:43:49;;;;;;;4.37;4.07;;;;;;;;;;4973100;28;20877;-50
2022/09/04 01:46:18;;;;;;;4.10;3.80;;;;;;;;;;4973132;28;20423;-49
2022/09/04 01:48:47;;;;;;;4.70;3.63;;;;;;;;;;4972844;28;20407;-49
2022/09/04 01:51:23;;;;;;;5.43;4.30;;;;;;;;;;4972851;28;20451;-52
2022/09/04 01:53:58;;;;;;;6.87;4.10;;;;;;;;;;4971211;28;20426;-49
2022/09/04 01:56:28;;;;;;;5.37;4.17;;;;;;;;;;4972881;28;20514;-49
2022/09/04 01:58:56;;;;;;;4.27;3.97;;;;;;;;;;4972737;28;20395;-50
2022/09/04 02:01:33;;;;;;;4.53;4.07;;;;;;;;;;4972942;28;20413;-51
2022/09/04 02:04:17;;;;;;;9.30;4.50;;;;;;;;;;4972971;28;20402;-49
2022/09/04 02:06:55;;;;;;;4.57;4.27;;;;;;;;;;4972828;28;20401;-49
2022/09/04 02:09:21;;;;;;;4.83;4.43;;;;;;;;;;4972565;28;20393;-49
2022/09/04 02:11:53;;;;;;;5.50;5.00;;;;;;;;;;4972884;28;20412;-50
2022/09/04 02:14:35;;;;;;;4.57;4.20;;;;;;;;;;4972905;28;20366;-49
2022/09/04 02:17:10;;;;;;;4.40;4.10;;;;;;;;;;4972697;28;20405;-50
2022/09/04 02:19:47;;;;;;;4.47;4.07;;;;;;;;;;4973925;28;20396;-49
2022/09/04 02:22:24;;;;;;;4.23;3.83;;;;;;;;;;4974563;28;20371;-49
2022/09/04 02:25:02;;;;;;;4.30;4.00;;;;;;;;;;4963841;28;20420;-50
2022/09/04 02:27:28;;;;;;;7.20;4.03;;;;;;;;;;4976097;28;20922;-50
2022/09/04 02:29:54;;;;;;;4.40;4.00;;;;;;;;;;4976146;28;20466;-51
2022/09/04 02:32:34;;;;;;;9.73;4.83;;;;;;;;;;4976341;28;20389;-49
2022/09/04 02:35:24;;;;;;;5.40;4.87;;;;;;;;;;4976319;28;20486;-50
2022/09/04 02:37:50;;;;;;;4.53;4.13;;;;;;;;;;4957287;28;20439;-49
2022/09/04 02:40:30;;;;;;;4.43;4.00;;;;;;;;;;4976109;28;20381;-49
2022/09/04 02:43:05;;;;;;;5.70;4.37;;;;;;;;;;4976160;28;20379;-49
2022/09/04 02:45:49;;;;;;;5.00;4.50;;;;;;;;;;4976148;28;20414;-52
2022/09/04 02:48:21;;;;;;;5.63;4.87;;;;;;;;;;4976085;28;20403;-50
2022/09/04 02:50:56;;;;;;;4.40;4.10;;;;;;;;;;4975875;28;20460;-52
2022/09/04 02:53:41;;;;;;;7.97;4.40;;;;;;;;;;4974963;28;20427;-49
2022/09/04 02:56:36;;;;;;;5.90;4.00;;;;;;;;;;4975193;28;20457;-49
2022/09/04 02:59:21;;;;;;;7.70;4.30;;;;;;;;;;4966748;28;20500;-50
2022/09/04 03:01:58;;;;;;;6.77;4.70;;;;;;;;;;4975819;28;20469;-49
2022/09/04 03:04:33;;;;;;;4.53;4.13;;;;;;;;;;4975808;28;20393;-49
2022/09/04 03:07:20;;;;;;;4.67;4.27;;;;;;;;;;4975669;28;20413;-50
2022/09/04 03:09:47;;;;;;;5.23;4.73;;;;;;;;;;4975503;28;20516;-49
2022/09/04 03:12:25;;;;;;;5.20;4.70;;;;;;;;;;4975613;28;20917;-49
2022/09/04 03:15:12;;;;;;;5.53;5.03;;;;;;;;;;4975679;28;20401;-49
2022/09/04 03:17:48;;;;;;;5.77;4.60;;;;;;;;;;4968570;28;20437;-49
2022/09/04 03:20:17;;;;;;;4.93;4.33;;;;;;;;;;4975373;28;20483;-50
2022/09/04 03:22:49;;;;;;;4.53;4.23;;;;;;;;;;4973983;28;20419;-49
2022/09/04 03:25:34;;;;;;;4.20;3.80;;;;;;;;;;4974693;28;20543;-50
2022/09/04 03:28:00;;;;;;;4.27;3.90;;;;;;;;;;4975040;28;20427;-52
2022/09/04 03:30:27;;;;;;;4.00;3.30;;;;;;;;;;4974502;28;20458;-53
2022/09/04 03:33:01;;;;;;;5.07;3.77;;;;;;;;;;4974941;28;20380;-51
2022/09/04 03:35:46;;;;;;;5.40;4.00;;;;;;;;;;4975420;28;20394;-51
2022/09/04 03:38:17;;;;;;;4.30;3.90;;;;;;;;;;4975061;28;20867;-52
2022/09/04 03:40:52;;;;;;;3.50;3.30;;;;;;;;;;4974901;28;20855;-51
2022/09/04 03:43:27;;;;;;;3.90;3.53;;;;;;;;;;4975188;28;20888;-51
2022/09/04 03:46:01;;;;;;;4.20;3.90;;;;;;;;;;4975075;28;20414;-51
2022/09/04 03:48:42;;;;;;;4.70;3.90;;;;;;;;;;4974979;28;20876;-51
2022/09/04 03:51:09;;;;;;;4.67;4.27;;;;;;;;;;4973812;28;20517;-51
2022/09/04 03:53:35;;;;;;;5.50;5.00;;;;;;;;;;4974843;28;20417;-51
2022/09/04 03:56:11;;;;;;;5.17;3.83;;;;;;;;;;4974735;28;20377;-51
2022/09/04 03:58:52;;;;;;;4.30;3.90;;;;;;;;;;4974574;28;20417;-52
2022/09/04 04:01:36;;;;;;;4.57;3.93;;;;;;;;;;4974968;28;20399;-51
2022/09/04 04:04:14;;;;;;;3.87;3.47;;;;;;;;;;4974855;28;20402;-51
2022/09/04 04:06:40;;;;;;;4.67;4.07;;;;;;;;;;4974768;28;20901;-51
2022/09/04 04:09:12;;;;;;;4.23;3.60;;;;;;;;;;4974349;28;20415;-51
2022/09/04 04:12:00;;;;;;;5.90;4.30;;;;;;;;;;4974599;28;20484;-51
2022/09/04 04:14:27;;;;;;;5.83;4.17;;;;;;;;;;4974624;28;20412;-51
2022/09/04 04:16:53;;;;;;;5.20;4.57;;;;;;;;;;4974519;28;20471;-51
2022/09/04 04:19:25;;;;;;;5.87;4.83;;;;;;;;;;4974154;28;20426;-52
2022/09/04 04:22:00;;;;;;;11.83;5.30;;;;;;;;;;4973409;28;20441;-51
2022/09/04 04:24:47;;;;;;;5.30;4.57;;;;;;;;;;4974318;28;20731;-51
2022/09/04 04:27:13;;;;;;;5.40;4.60;;;;;;;;;;4974044;28;20424;-51
2022/09/04 04:29:59;;;;;;;4.90;4.60;;;;;;;;;;4973929;28;20447;-51
2022/09/04 04:32:31;;;;;;;5.27;4.87;;;;;;;;;;4974059;28;20475;-52
2022/09/04 04:35:04;;;;;;;5.30;4.80;;;;;;;;;;4974156;28;20384;-52
2022/09/04 04:37:50;;;;;;;6.70;4.60;;;;;;;;;;4973928;28;20446;-53
2022/09/04 04:40:22;;;;;;;5.40;4.60;;;;;;;;;;4973853;28;20383;-51
2022/09/04 04:42:48;;;;;;;5.20;4.80;;;;;;;;;;4973505;28;20428;-51
2022/09/04 04:48:06;;;;;;;5.77;5.13;;;;;;;;;;4974037;28;20490;-51
2022/09/04 04:50:48;;;;;;;7.00;5.53;;;;;;;;;;4971843;28;20468;-51
2022/09/04 04:53:30;;;;;;;5.90;5.10;;;;;;;;;;4973039;28;20432;-50
2022/09/04 04:56:02;;;;;;;5.30;4.90;;;;;;;;;;4973181;28;20372;-51
2022/09/04 04:58:52;;;;;;;6.37;5.13;;;;;;;;;;4973657;28;20380;-50
2022/09/04 05:01:33;;;;;;;5.97;5.37;;;;;;;;;;4973827;28;20419;-51
2022/09/04 05:04:20;;;;;;;9.83;6.60;;;;;;;;;;4973765;28;20417;-51
2022/09/04 05:06:56;;;;;;;7.20;6.60;;;;;;;;;;4973639;28;20450;-51
2022/09/04 05:09:29;;;;;;;7.27;6.67;;;;;;;;;;4973230;28;20379;-51
2022/09/04 05:11:59;;;;;;;6.50;5.90;;;;;;;;;;4973493;28;20394;-51
2022/09/04 05:14:28;;;;;;;8.60;6.23;;;;;;;;;;4973562;28;20372;-51
2022/09/04 05:16:53;;;;;;;5.70;5.17;;;;;;;;;;4973644;28;20857;-50
2022/09/04 05:19:22;;;;;;;6.00;5.50;;;;;;;;;;4971932;28;20490;-51
2022/09/04 05:21:53;;;;;;;7.57;4.90;;;;;;;;;;4972736;28;20569;-51
2022/09/04 05:24:22;;;;;;;11.13;5.27;;;;;;;;;;4973417;28;20381;-52
2022/09/04 05:26:54;;;;;;;6.50;5.00;;;;;;;;;;4972941;28;20432;-52
2022/09/04 05:29:20;;;;;;;7.13;6.43;;;;;;;;;;4973076;28;20371;-51
2022/09/04 05:31:52;;;;;;;11.80;5.93;;;;;;;;;;4973317;28;20943;-51
2022/09/04 05:34:28;;;;;;;7.20;6.40;;;;;;;;;;4973334;28;20445;-52
2022/09/04 05:37:06;;;;;;;7.87;6.30;;;;;;;;;;4973036;28;20790;-51
2022/09/04 05:39:39;;;;;;;8.30;6.53;;;;;;;;;;4973116;28;20731;-51
2022/09/04 05:42:11;;;;;;;8.27;7.00;;;;;;;;;;4973290;28;20371;-52
2022/09/04 05:47:46;;;;;;;10.43;6.40;;;;;;;;;;4961896;28;20422;-51
2022/09/04 05:50:12;;;;;;;7.47;5.90;;;;;;;;;;4971935;28;20452;-52
2022/09/04 05:53:05;;;;;;;11.10;6.23;;;;;;;;;;4972327;28;20430;-51
2022/09/04 05:55:49;;;;;;;6.87;6.27;;;;;;;;;;4973998;28;20417;-50
2022/09/04 05:58:35;;;;;;;8.37;5.23;;;;;;;;;;4977008;28;20399;-50
2022/09/04 06:01:07;;;;;;;7.83;5.63;;;;;;;;;;4976575;28;20429;-50
2022/09/04 06:03:56;;;;;;;5.13;4.73;;;;;;;;;;4976148;28;20412;-51
2022/09/04 06:06:32;;;;;;;5.40;4.90;;;;;;;;;;4971580;28;20446;-51
2022/09/04 06:08:58;;;;;;;8.70;5.30;;;;;;;;;;4976778;28;20477;-51
2022/09/04 06:11:36;;;;;;;6.90;4.97;;;;;;;;;;4976786;28;20563;-50
2022/09/04 06:14:20;;;;;;;6.03;5.40;;;;;;;;;;4976906;28;20514;-51
2022/09/04 06:16:49;;;;;;;5.87;5.37;;;;;;;;;;4976939;28;20487;-52
2022/09/04 06:19:23;;;;;;;7.47;5.37;;;;;;;;;;4976629;28;20404;-51
2022/09/04 06:22:06;;;;;;;5.20;4.70;;;;;;;;;;4976890;28;20543;-51
2022/09/04 06:24:41;;;;;;;5.57;4.80;;;;;;;;;;4975809;28;20802;-51
2022/09/04 06:27:22;;;;;;;6.87;6.27;;;;;;;;;;4976297;28;20928;-51
2022/09/04 06:29:52;;;;;;;4.80;4.37;;;;;;;;;;4976497;28;20472;-51
2022/09/04 06:32:28;;;;;;;4.33;4.03;;;;;;;;;;4976610;28;20407;-51
2022/09/04 06:35:16;;;;;;;4.90;4.13;;;;;;;;;;4976697;28;20486;-52
2022/09/04 06:37:51;;;;;;;4.90;4.43;;;;;;;;;;4976547;28;20441;-52
2022/09/04 06:40:37;;;;;;;5.00;3.80;;;;;;;;;;4976529;28;20386;-51
2022/09/04 06:43:23;;;;;;;4.10;3.80;;;;;;;;;;4976532;28;20383;-51
2022/09/04 06:45:49;;;;;;;6.17;4.40;;;;;;;;;;4976511;28;20417;-51
2022/09/04 06:48:35;;;;;;;4.20;3.83;;;;;;;;;;4974231;28;20489;-53
2022/09/04 06:51:15;;;;;;;4.70;4.30;;;;;;;;;;4976327;28;20432;-51
2022/09/04 06:54:03;;;;;;;7.23;3.97;;;;;;;;;;4976347;28;20403;-52
2022/09/04 06:56:40;;;;;;;4.50;4.10;;;;;;;;;;4976475;28;20427;-51
2022/09/04 06:59:06;;;;;;;3.60;3.30;;;;;;;;;;4975965;28;20412;-52
2022/09/04 07:01:51;;;;;;;3.80;3.50;;;;;;;;;;4976060;28;20416;-52
2022/09/04 07:04:20;;;;;;;3.80;3.50;;;;;;;;;;4976113;28;20397;-54
2022/09/04 07:07:04;;;;;;;4.13;3.83;;;;;;;;;;4975574;28;20790;-50
2022/09/04 07:09:43;;;;;;;5.70;3.60;;;;;;;;;;4975722;28;20401;-51
2022/09/04 07:12:36;;;;;;;3.43;3.23;;;;;;;;;;4975731;28;20421;-51
2022/09/04 07:15:21;;;;;;;4.07;3.63;;;;;;;;;;4975939;28;20426;-51
2022/09/04 07:17:52;;;;;;;2.60;2.40;;;;;;;;;;4973790;28;20486;-51
2022/09/04 07:20:40;;;;;;;5.37;3.73;;;;;;;;;;4974104;28;20419;-53
2022/09/04 07:23:22;;;;;;;2.80;2.60;;;;;;;;;;4975688;28;20393;-52
2022/09/04 07:26:07;;;;;;;3.10;2.90;;;;;;;;;;4976080;28;20488;-51
2022/09/04 07:28:51;;;;;;;3.40;3.10;;;;;;;;;;4975418;28;20405;-51
2022/09/04 07:31:23;;;;;;;2.33;2.23;;;;;;;;;;4975461;28;20461;-51
2022/09/04 07:33:57;;;;;;;2.90;2.70;;;;;;;;;;4975647;28;20411;-51
2022/09/04 07:36:43;;;;;;;2.90;2.70;;;;;;;;;;4975721;28;20531;-51
2022/09/04 07:39:12;;;;;;;2.90;2.70;;;;;;;;;;4955067;28;20823;-51
2022/09/04 07:41:38;;;;;;;2.50;2.20;;;;;;;;;;4975823;28;20417;-51
2022/09/04 07:44:06;;;;;;;2.80;2.00;;;;;;;;;;4975776;28;20408;-51
2022/09/04 07:46:43;;;;;;;4.93;2.20;;;;;;;;;;4975723;28;20436;-51
2022/09/04 07:49:27;;;;;;;2.37;2.17;;;;;;;;;;4974326;28;20519;-52
2022/09/04 07:52:18;;;;;;;2.50;2.40;;;;;;;;;;4974821;28;20563;-51
2022/09/04 07:55:03;;;;;;;2.47;2.27;;;;;;;;;;4970728;28;20798;-51
2022/09/04 07:57:38;;;;;;;2.47;2.17;;;;;;;;;;4975681;28;20806;-52
2022/09/04 08:00:09;;;;;;;2.83;2.37;;;;;;;;;;4975146;28;20897;-51
2022/09/04 08:02:55;;;;;;;2.10;1.90;;;;;;;;;;4975295;28;20480;-52
2022/09/04 08:05:31;;;;;;;2.30;2.20;;;;;;;;;;4970488;28;21533;-51
2022/09/04 08:08:03;;;;;;;3.43;2.10;;;;;;;;;;4970641;28;20789;-51
2022/09/04 08:10:48;;;;;;;3.80;2.30;;;;;;;;;;4975678;28;20463;-51
2022/09/04 08:13:34;;;;;;;4.87;2.40;;;;;;;;;;4974155;28;20409;-51
2022/09/04 08:16:05;;;;;;;3.17;2.97;;;;;;;;;;4975069;28;20436;-52
2022/09/04 08:18:42;;;;;;;3.30;2.80;;;;;;;;;;4973510;28;20439;-51
2022/09/04 08:21:15;;;;;;;4.33;2.30;;;;;;;;;;4973918;28;20816;-51
2022/09/04 08:24:00;;;;;;;9.30;2.07;;;;;;;;;;4973661;28;20405;-52
2022/09/04 08:26:29;;;;;;;2.10;1.90;;;;;;;;;;4974964;28;20428;-51
2022/09/04 08:29:13;;;;;;;4.43;2.33;;;;;;;;;;4974741;28;21056;-51
2022/09/04 08:31:47;;;;;;;2.47;2.30;;;;;;;;;;4974162;28;20460;-51
2022/09/04 08:34:29;;;;;;;2.10;1.73;;;;;;;;;;4974845;28;20417;-52
2022/09/04 08:37:18;;;;;;;2.37;2.27;;;;;;;;;;4974846;28;20444;-52
2022/09/04 08:39:44;;;;;;;2.40;2.07;;;;;;;;;;4955873;28;20413;-51
2022/09/04 08:42:28;;;;;;;1.90;1.80;;;;;;;;;;4968427;28;20484;-52
2022/09/04 08:45:26;;;;;;;1.93;1.80;;;;;;;;;;4963578;28;20456;-52
2022/09/04 08:48:11;;;;;;;2.43;1.70;;;;;;;;;;4953818;28;20434;-51
2022/09/04 08:50:37;;;;;;;2.40;2.17;;;;;;;;;;4963503;28;20467;-51
2022/09/04 08:53:21;;;;;;;4.67;2.40;;;;;;;;;;4964266;28;20484;-52
2022/09/04 08:56:05;;;;;;;1.80;1.70;;;;;;;;;;4965392;28;20169;-51
2022/09/04 08:58:31;;;;;;;1.87;1.67;;;;;;;;;;4957163;28;20413;-51
2022/09/04 09:01:08;;;;;;;8.50;2.40;;;;;;;;;;4954838;28;20418;-51
2022/09/04 09:03:53;;;;;;;3.27;2.10;;;;;;;;;;4954550;28;20532;-52
2022/09/04 09:06:31;;;;;;;2.13;2.03;;;;;;;;;;4954826;29;20461;-51
2022/09/04 09:09:09;;;;;;;2.73;2.03;;;;;;;;;;4954617;28;20412;-51
2022/09/04 09:11:42;;;;;;;2.13;1.93;;;;;;;;;;4955029;28;20465;-51
2022/09/04 09:14:26;;;;;;;1.93;1.83;;;;;;;;;;4954582;28;20465;-51
2022/09/04 09:16:55;;;;;;;2.80;2.43;;;;;;;;;;4956929;28;20452;-51
2022/09/04 09:19:36;;;;;;;2.07;1.90;;;;;;;;;;4973412;28;20425;-53
2022/09/04 09:22:20;;;;;;;2.00;1.80;;;;;;;;;;4972332;28;20397;-52
2022/09/04 09:24:59;;;;;;;1.90;1.80;;;;;;;;;;4973394;28;20418;-52
2022/09/04 09:27:37;;;;;;;2.23;2.13;;;;;;;;;;4973484;28;20817;-51
2022/09/04 09:30:07;;;;;;;2.00;1.90;;;;;;;;;;4973213;28;20449;-51
2022/09/04 09:32:33;;;;;;;5.87;2.00;;;;;;;;;;4972957;28;20455;-52
2022/09/04 09:35:20;;;;;;;1.90;1.80;;;;;;;;;;4971091;28;20916;-51
2022/09/04 09:38:05;;;;;;;2.37;2.17;;;;;;;;;;4971554;28;20448;-52
2022/09/04 09:40:54;;;;;;;2.60;2.40;;;;;;;;;;4953754;29;20464;-52
2022/09/04 09:43:40;;;;;;;3.63;2.37;;;;;;;;;;4953354;29;20972;-52
2022/09/04 09:46:15;;;;;;;3.50;2.33;;;;;;;;;;4953966;29;20807;-51
2022/09/04 09:48:48;;;;;;;2.53;2.33;;;;;;;;;;4953660;28;20444;-51
2022/09/04 09:51:17;;;;;;;2.30;2.10;;;;;;;;;;4952611;29;20802;-52
2022/09/04 09:53:50;;;;;;;2.87;2.63;;;;;;;;;;4953928;28;20401;-51
2022/09/04 09:56:28;;;;;;;2.93;2.13;;;;;;;;;;4953555;28;20430;-51
2022/09/04 09:59:13;;;;;;;2.00;1.90;;;;;;;;;;4953740;28;20398;-51
2022/09/04 10:01:51;;;;;;;2.23;2.13;;;;;;;;;;4953848;29;20457;-52
2022/09/04 10:04:23;;;;;;;4.53;2.20;;;;;;;;;;4952728;28;20512;-52
2022/09/04 10:07:09;;;;;;;6.20;2.60;;;;;;;;;;4969033;28;20453;-52
2022/09/04 10:09:36;;;;;;;2.10;1.77;;;;;;;;;;4971614;28;20413;-52
2022/09/04 10:12:24;;;;;;;2.50;2.30;;;;;;;;;;4967360;28;20505;-52
2022/09/04 10:15:05;;;;;;;3.97;2.33;;;;;;;;;;4967668;28;20409;-51
2022/09/04 10:17:50;;;;;;;2.80;2.60;;;;;;;;;;4973113;28;20431;-52
2022/09/04 10:20:20;;;;;;;3.00;2.30;;;;;;;;;;4973077;28;20393;-54
2022/09/04 10:22:55;;;;;;;2.00;1.90;;;;;;;;;;4970414;28;20937;-51
2022/09/04 10:25:36;;;;;;;2.37;2.17;;;;;;;;;;4973041;28;20399;-52
2022/09/04 10:28:21;;;;;;;2.10;1.90;;;;;;;;;;4972601;28;20774;-51
2022/09/04 10:30:47;;;;;;;2.23;2.00;;;;;;;;;;4972915;28;20813;-51
2022/09/04 10:33:17;;;;;;;2.57;2.37;;;;;;;;;;4973368;28;20468;-52
2022/09/04 10:35:48;;;;;;;2.33;2.23;;;;;;;;;;4972508;28;20193;-53
2022/09/04 10:38:14;;;;;;;3.40;2.50;;;;;;;;;;4972620;28;20460;-53
2022/09/04 10:40:56;;;;;;;3.23;2.43;;;;;;;;;;4973947;28;20823;-53
2022/09/04 10:43:51;;;;;;;2.20;2.10;;;;;;;;;;4974905;28;20181;-52
2022/09/04 10:46:36;;;;;;;3.13;2.47;;;;;;;;;;4939996;28;20430;-53
2022/09/04 10:49:05;;;;;;;2.33;2.23;;;;;;;;;;4974280;28;20408;-53
2022/09/04 10:51:34;;;;;;;2.33;2.07;;;;;;;;;;4976314;28;20523;-54
2022/09/04 10:54:20;;;;;;;2.30;2.10;;;;;;;;;;4975959;28;20396;-53
2022/09/04 10:56:55;;;;;;;2.40;2.20;;;;;;;;;;4945699;28;20480;-52
2022/09/04 10:59:40;;;;;;;4.03;2.00;;;;;;;;;;4975572;28;20401;-53
2022/09/04 11:02:24;;;;;;;2.43;2.27;;;;;;;;;;4975883;28;20397;-53
2022/09/04 11:05:05;;;;;;;2.50;2.30;;;;;;;;;;4973445;28;20810;-52
2022/09/04 11:07:43;;;;;;;2.00;1.90;;;;;;;;;;4975528;28;20435;-52
2022/09/04 11:10:18;;;;;;;1.90;1.80;;;;;;;;;;4975329;28;20820;-52
2022/09/04 11:12:47;;;;;;;2.57;2.37;;;;;;;;;;4975651;28;20404;-53
2022/09/04 11:15:22;;;;;;;2.53;2.33;;;;;;;;;;4975437;28;20401;-52
2022/09/04 11:17:54;;;;;;;2.50;2.03;;;;;;;;;;4975477;28;20427;-52
2022/09/04 11:20:23;;;;;;;3.30;2.53;;;;;;;;;;4975220;28;20905;-53
2022/09/04 11:23:01;;;;;;;2.57;2.10;;;;;;;;;;4975428;28;20455;-53
2022/09/04 11:25:27;;;;;;;1.80;1.70;;;;;;;;;;4971647;28;20420;-52
2022/09/04 11:27:57;;;;;;;2.30;2.20;;;;;;;;;;4972377;28;20771;-52
2022/09/04 11:30:33;;;;;;;2.20;1.90;;;;;;;;;;4973991;28;20607;-53
2022/09/04 11:33:02;;;;;;;3.80;2.00;;;;;;;;;;4975421;28;20867;-52
2022/09/04 11:35:30;;;;;;;2.00;1.90;;;;;;;;;;4975285;28;20408;-53
2022/09/04 11:38:02;;;;;;;2.10;2.00;;;;;;;;;;4974795;28;20576;-54
2022/09/04 11:40:54;;;;;;;3.07;2.80;;;;;;;;;;4972846;28;20463;-53
2022/09/04 11:43:22;;;;;;;2.53;2.07;;;;;;;;;;4955392;28;20448;-52
2022/09/04 11:45:48;;;;;;;3.90;1.70;;;;;;;;;;4974939;28;20901;-52
2022/09/04 11:48:20;;;;;;;2.20;2.10;;;;;;;;;;4973291;28;20429;-52
2022/09/04 11:51:15;;;;;;;2.00;1.87;;;;;;;;;;4974533;28;20201;-52
2022/09/04 11:54:03;;;;;;;3.73;1.80;;;;;;;;;;4974140;28;20397;-52
2022/09/04 11:56:29;;;;;;;3.13;1.73;;;;;;;;;;4974862;28;20424;-53
2022/09/04 11:59:02;;;;;;;2.13;1.87;;;;;;;;;;4974585;28;20401;-53
2022/09/04 12:01:48;;;;;;;2.03;1.87;;;;;;;;;;4973157;28;20197;-53
2022/09/04 12:04:21;;;;;;;2.03;1.87;;;;;;;;;;4974615;28;20417;-52
2022/09/04 12:07:12;;;;;;;4.90;2.20;;;;;;;;;;4974639;28;20444;-52
2022/09/04 12:10:00;;;;;;;2.37;2.17;;;;;;;;;;4974248;28;20408;-53
2022/09/04 12:12:35;;;;;;;3.20;1.90;;;;;;;;;;4974832;28;20484;-53
2022/09/04 12:15:21;;;;;;;1.87;1.77;;;;;;;;;;4974580;28;20412;-52
2022/09/04 12:18:07;;;;;;;2.10;1.90;;;;;;;;;;4974226;28;20428;-52
2022/09/04 12:20:33;;;;;;;2.10;1.83;;;;;;;;;;4974121;28;20405;-52
2022/09/04 12:23:27;;;;;;;1.70;1.60;;;;;;;;;;4974717;28;20923;-52
2022/09/04 12:26:04;;;;;;;1.83;1.73;;;;;;;;;;4974123;28;20664;-52
2022/09/04 12:28:36;;;;;;;1.80;1.70;;;;;;;;;;4974015;28;20451;-52
2022/09/04 12:31:20;;;;;;;1.90;1.80;;;;;;;;;;4972337;28;20883;-52
2022/09/04 12:34:05;;;;;;;1.93;1.67;;;;;;;;;;4973280;28;20889;-52
2022/09/04 12:36:43;;;;;;;1.83;1.70;;;;;;;;;;4972510;28;20456;-52
2022/09/04 12:39:38;;;;;;;1.93;1.80;;;;;;;;;;4973599;28;20409;-53
2022/09/04 12:42:12;;;;;;;1.80;1.50;;;;;;;;;;4964603;28;20961;-52
2022/09/04 12:44:46;;;;;;;2.00;1.90;;;;;;;;;;4974046;28;20877;-53
2022/09/04 12:47:12;;;;;;;4.60;1.40;;;;;;;;;;4973874;28;20424;-53
2022/09/04 12:49:44;;;;;;;1.63;1.53;;;;;;;;;;4973700;28;20422;-53
2022/09/04 12:52:18;;;;;;;7.00;2.17;;;;;;;;;;4973864;28;20470;-52
2022/09/04 12:55:03;;;;;;;3.00;1.80;;;;;;;;;;4973844;28;20405;-52
2022/09/04 12:57:31;;;;;;;1.80;1.70;;;;;;;;;;4973409;28;20413;-52
2022/09/04 13:00:11;;;;;;;3.10;1.90;;;;;;;;;;4971387;28;20445;-52
2022/09/04 13:02:48;;;;;;;3.30;1.83;;;;;;;;;;4972981;28;20432;-52
2022/09/04 13:05:33;;;;;;;2.03;1.93;;;;;;;;;;4972560;28;20412;-52
2022/09/04 13:08:00;;;;;;;2.83;2.13;;;;;;;;;;4973319;28;20652;-52
2022/09/04 13:10:31;;;;;;;3.50;2.37;;;;;;;;;;4973171;28;20571;-52
2022/09/04 13:13:18;;;;;;;2.57;2.40;;;;;;;;;;4973412;28;20401;-52
2022/09/04 13:15:44;;;;;;;2.90;2.17;;;;;;;;;;4973471;28;20401;-52
2022/09/04 13:18:13;;;;;;;1.73;1.63;;;;;;;;;;4973207;28;20646;-52
2022/09/04 13:20:48;;;;;;;1.97;1.80;;;;;;;;;;4973339;28;20444;-51
2022/09/04 13:23:25;;;;;;;4.93;1.70;;;;;;;;;;4973304;28;20412;-51
2022/09/04 13:25:57;;;;;;;2.13;1.80;;;;;;;;;;4973835;28;20408;-50
2022/09/04 13:28:26;;;;;;;1.70;1.60;;;;;;;;;;4973155;28;20412;-50
2022/09/04 13:31:18;;;;;;;1.80;1.70;;;;;;;;;;4969980;28;20471;-50
2022/09/04 13:34:03;;;;;;;3.97;2.00;;;;;;;;;;4957576;28;20425;-52
2022/09/04 13:36:37;;;;;;;1.80;1.70;;;;;;;;;;4972778;28;20494;-50
2022/09/04 13:39:16;;;;;;;1.90;1.80;;;;;;;;;;4971375;28;20413;-50
2022/09/04 13:41:52;;;;;;;2.40;2.20;;;;;;;;;;4971744;28;20409;-50
2022/09/04 13:44:28;;;;;;;1.83;1.50;;;;;;;;;;4971984;28;20403;-50
2022/09/04 13:47:13;;;;;;;2.60;1.90;;;;;;;;;;4972080;28;20933;-49
2022/09/04 13:49:43;;;;;;;3.20;1.63;;;;;;;;;;4969883;28;20753;-50
2022/09/04 13:52:13;;;;;;;2.33;1.60;;;;;;;;;;4955165;28;20543;-50
2022/09/04 13:54:42;;;;;;;2.20;2.00;;;;;;;;;;4972090;28;20437;-50
2022/09/04 13:57:16;;;;;;;2.77;2.27;;;;;;;;;;4972137;28;20425;-50
2022/09/04 13:59:45;;;;;;;2.00;1.80;;;;;;;;;;4971355;28;20409;-51
2022/09/04 14:02:13;;;;;;;4.30;2.20;;;;;;;;;;4970623;28;20478;-52
2022/09/04 14:04:50;;;;;;;2.23;2.13;;;;;;;;;;4971698;28;20912;-50
2022/09/04 14:07:23;;;;;;;1.80;1.70;;;;;;;;;;4971905;28;20425;-50
2022/09/04 14:09:51;;;;;;;2.20;2.10;;;;;;;;;;4971296;28;20416;-50
2022/09/04 14:12:36;;;;;;;3.00;2.80;;;;;;;;;;4971031;28;20427;-50
2022/09/04 14:15:09;;;;;;;2.00;1.90;;;;;;;;;;4972232;28;20409;-50
2022/09/04 14:17:42;;;;;;;4.10;2.50;;;;;;;;;;4975217;28;20440;-49
2022/09/04 14:20:14;;;;;;;3.00;2.43;;;;;;;;;;4975119;28;20412;-50
2022/09/04 14:22:54;;;;;;;4.60;2.33;;;;;;;;;;4975181;28;20409;-50
2022/09/04 14:25:36;;;;;;;2.23;1.77;;;;;;;;;;4975318;28;20441;-51
2022/09/04 14:28:21;;;;;;;2.83;2.20;;;;;;;;;;4975118;28;20435;-50
2022/09/04 14:31:13;;;;;;;2.03;1.90;;;;;;;;;;4974881;28;20449;-50
2022/09/04 14:33:48;;;;;;;2.80;2.20;;;;;;;;;;4973280;28;20893;-50
2022/09/04 14:36:33;;;;;;;4.35;2.10;;;;;;;;;;4938595;28;1066717;-50
2022/09/04 14:39:13;;;;;;;2.80;2.60;;;;;;;;;;4976006;28;20161;-52
2022/09/04 14:41:42;;;;;;;2.20;2.10;;;;;;;;;;4976144;28;20897;-50
2022/09/04 14:44:27;;;;;;;1.80;1.70;;;;;;;;;;4976197;28;20729;-50
2022/09/04 14:46:58;;;;;;;2.87;2.47;;;;;;;;;;4974602;28;20986;-50
2022/09/04 14:49:30;;;;;;;3.73;2.70;;;;;;;;;;4975628;28;20409;-50
2022/09/04 14:51:58;;;;;;;2.77;2.13;;;;;;;;;;4975950;28;20448;-50
2022/09/04 14:54:29;;;;;;;2.83;2.60;;;;;;;;;;4976168;28;20405;-50
2022/09/04 14:57:01;;;;;;;3.30;2.13;;;;;;;;;;4974499;28;20447;-49
2022/09/04 14:59:32;;;;;;;5.90;2.20;;;;;;;;;;4975662;28;20416;-50
2022/09/04 15:02:10;;;;;;;2.83;2.20;;;;;;;;;;4975851;28;20447;-50
2022/09/04 15:04:45;;;;;;;3.17;2.60;;;;;;;;;;4975543;28;20614;-51
2022/09/04 15:07:23;;;;;;;3.77;2.00;;;;;;;;;;4974492;28;20582;-50
2022/09/04 15:09:50;;;;;;;2.40;2.20;;;;;;;;;;4974078;28;20488;-50
2022/09/04 15:12:23;;;;;;;2.50;2.30;;;;;;;;;;4975604;28;20488;-50
2022/09/04 15:14:50;;;;;;;1.90;1.80;;;;;;;;;;4975488;28;20408;-50
2022/09/04 15:17:25;;;;;;;2.43;2.07;;;;;;;;;;4974007;28;20515;-50
2022/09/04 15:19:51;;;;;;;2.40;2.20;;;;;;;;;;4974866;28;20792;-50
2022/09/04 15:22:16;;;;;;;3.83;3.40;;;;;;;;;;4975503;28;20401;-50
2022/09/04 15:25:09;;;;;;;2.67;2.47;;;;;;;;;;4975413;28;20242;-50
2022/09/04 15:27:36;;;;;;;2.77;2.40;;;;;;;;;;4957744;28;20838;-49
2022/09/04 15:30:05;;;;;;;2.83;2.53;;;;;;;;;;4975084;28;20413;-50
2022/09/04 15:32:35;;;;;;;3.23;2.10;;;;;;;;;;4975266;28;20491;-50
2022/09/04 15:35:07;;;;;;;2.87;2.67;;;;;;;;;;4975386;28;20420;-50
2022/09/04 15:37:34;;;;;;;2.60;2.40;;;;;;;;;;4974980;28;20449;-50
2022/09/04 15:40:10;;;;;;;5.40;2.93;;;;;;;;;;4974867;28;20476;-50
2022/09/04 15:42:58;;;;;;;2.50;2.40;;;;;;;;;;4973659;28;20417;-50